sensor_id;sensor_type;location;lat;lon;timestamp;P1;durP1;ratioP1;P2;durP2;ratioP2
43646;SDS011;56152;49.996;18.980;2023-10-31T00:01:42;3.28;;;1.60;;
43646;SDS011;56152;49.996;18.980;2023-10-31T00:06:44;3.45;;;1.80;;
43646;SDS011;56152;49.996;18.980;2023-10-31T00:11:47;7.07;;;2.10;;
43646;SDS011;56152;49.996;18.980;2023-10-31T00:16:53;4.95;;;2.20;;
43646;SDS011;56152;49.996;18.980;2023-10-31T00:21:56;5.18;;;1.70;;
43646;SDS011;56152;49.996;18.980;2023-10-31T00:26:58;9.50;;;1.95;;
43646;SDS011;56152;49.996;18.980;2023-10-31T00:32:03;3.63;;;1.40;;
43646;SDS011;56152;49.996;18.980;2023-10-31T00:37:05;4.80;;;1.75;;
43646;SDS011;56152;49.996;18.980;2023-10-31T00:42:09;7.85;;;2.20;;
43646;SDS011;56152;49.996;18.980;2023-10-31T00:47:13;6.45;;;1.98;;
43646;SDS011;56152;49.996;18.980;2023-10-31T00:52:16;9.13;;;2.90;;
43646;SDS011;56152;49.996;18.980;2023-10-31T00:57:18;33.40;;;6.85;;
43646;SDS011;56152;49.996;18.980;2023-10-31T01:02:22;42.03;;;9.80;;
43646;SDS011;56152;49.996;18.980;2023-10-31T01:07:24;45.13;;;9.43;;
43646;SDS011;56152;49.996;18.980;2023-10-31T01:12:27;38.40;;;7.32;;
43646;SDS011;56152;49.996;18.980;2023-10-31T01:17:32;32.28;;;6.63;;
43646;SDS011;56152;49.996;18.980;2023-10-31T01:22:34;16.20;;;4.05;;
43646;SDS011;56152;49.996;18.980;2023-10-31T01:27:39;38.22;;;9.23;;
43646;SDS011;56152;49.996;18.980;2023-10-31T01:32:43;30.80;;;9.57;;
43646;SDS011;56152;49.996;18.980;2023-10-31T01:37:46;26.00;;;5.75;;
43646;SDS011;56152;49.996;18.980;2023-10-31T01:42:50;41.65;;;9.65;;
43646;SDS011;56152;49.996;18.980;2023-10-31T01:47:54;33.33;;;8.10;;
43646;SDS011;56152;49.996;18.980;2023-10-31T01:52:56;8.90;;;3.20;;
43646;SDS011;56152;49.996;18.980;2023-10-31T01:58:00;6.13;;;2.22;;
43646;SDS011;56152;49.996;18.980;2023-10-31T02:03:12;4.82;;;2.33;;
43646;SDS011;56152;49.996;18.980;2023-10-31T02:08:15;6.47;;;1.70;;
43646;SDS011;56152;49.996;18.980;2023-10-31T02:13:18;14.75;;;2.72;;
43646;SDS011;56152;49.996;18.980;2023-10-31T02:18:22;6.97;;;2.42;;
43646;SDS011;56152;49.996;18.980;2023-10-31T02:23:26;9.13;;;3.15;;
43646;SDS011;56152;49.996;18.980;2023-10-31T02:28:29;11.07;;;3.30;;
43646;SDS011;56152;49.996;18.980;2023-10-31T02:33:32;26.38;;;7.82;;
43646;SDS011;56152;49.996;18.980;2023-10-31T02:38:40;26.08;;;7.43;;
43646;SDS011;56152;49.996;18.980;2023-10-31T02:43:42;23.40;;;6.60;;
43646;SDS011;56152;49.996;18.980;2023-10-31T02:48:46;37.83;;;11.23;;
43646;SDS011;56152;49.996;18.980;2023-10-31T02:53:52;5.88;;;2.90;;
43646;SDS011;56152;49.996;18.980;2023-10-31T02:58:54;7.63;;;2.28;;
43646;SDS011;56152;49.996;18.980;2023-10-31T03:03:56;4.82;;;2.20;;
43646;SDS011;56152;49.996;18.980;2023-10-31T03:09:02;3.17;;;1.80;;
43646;SDS011;56152;49.996;18.980;2023-10-31T03:14:07;4.20;;;2.30;;
43646;SDS011;56152;49.996;18.980;2023-10-31T03:19:09;4.55;;;1.80;;
43646;SDS011;56152;49.996;18.980;2023-10-31T03:24:15;4.45;;;2.15;;
43646;SDS011;56152;49.996;18.980;2023-10-31T03:29:18;3.97;;;1.92;;
43646;SDS011;56152;49.996;18.980;2023-10-31T03:34:20;5.80;;;1.75;;
43646;SDS011;56152;49.996;18.980;2023-10-31T03:39:24;5.47;;;2.17;;
43646;SDS011;56152;49.996;18.980;2023-10-31T03:44:29;6.53;;;2.20;;
43646;SDS011;56152;49.996;18.980;2023-10-31T03:49:31;7.97;;;2.17;;
43646;SDS011;56152;49.996;18.980;2023-10-31T03:54:36;4.68;;;1.85;;
43646;SDS011;56152;49.996;18.980;2023-10-31T03:59:38;3.78;;;1.67;;
43646;SDS011;56152;49.996;18.980;2023-10-31T04:04:41;4.25;;;1.73;;
43646;SDS011;56152;49.996;18.980;2023-10-31T04:09:47;7.55;;;1.95;;
43646;SDS011;56152;49.996;18.980;2023-10-31T04:14:49;7.35;;;2.05;;
43646;SDS011;56152;49.996;18.980;2023-10-31T04:19:52;4.13;;;1.92;;
43646;SDS011;56152;49.996;18.980;2023-10-31T04:24:57;6.65;;;2.00;;
43646;SDS011;56152;49.996;18.980;2023-10-31T04:29:59;7.93;;;2.10;;
43646;SDS011;56152;49.996;18.980;2023-10-31T04:35:06;2.85;;;1.77;;
43646;SDS011;56152;49.996;18.980;2023-10-31T04:40:11;9.10;;;2.05;;
43646;SDS011;56152;49.996;18.980;2023-10-31T04:45:14;7.65;;;2.42;;
43646;SDS011;56152;49.996;18.980;2023-10-31T04:50:18;4.93;;;2.00;;
43646;SDS011;56152;49.996;18.980;2023-10-31T04:55:24;8.02;;;1.90;;
43646;SDS011;56152;49.996;18.980;2023-10-31T05:00:28;4.25;;;2.63;;
43646;SDS011;56152;49.996;18.980;2023-10-31T05:05:30;8.40;;;2.72;;
43646;SDS011;56152;49.996;18.980;2023-10-31T05:10:34;6.18;;;2.33;;
43646;SDS011;56152;49.996;18.980;2023-10-31T05:15:37;7.10;;;2.50;;
43646;SDS011;56152;49.996;18.980;2023-10-31T05:20:40;6.43;;;2.05;;
43646;SDS011;56152;49.996;18.980;2023-10-31T05:25:44;5.68;;;1.77;;
43646;SDS011;56152;49.996;18.980;2023-10-31T05:30:47;7.30;;;2.00;;
43646;SDS011;56152;49.996;18.980;2023-10-31T05:35:53;2.80;;;1.58;;
43646;SDS011;56152;49.996;18.980;2023-10-31T05:40:57;7.00;;;2.00;;
43646;SDS011;56152;49.996;18.980;2023-10-31T05:45:59;6.13;;;2.05;;
43646;SDS011;56152;49.996;18.980;2023-10-31T05:51:02;5.35;;;1.92;;
43646;SDS011;56152;49.996;18.980;2023-10-31T05:56:09;7.22;;;2.15;;
43646;SDS011;56152;49.996;18.980;2023-10-31T06:01:12;6.10;;;1.90;;
43646;SDS011;56152;49.996;18.980;2023-10-31T06:06:14;5.93;;;2.33;;
43646;SDS011;56152;49.996;18.980;2023-10-31T06:11:19;5.78;;;2.20;;
43646;SDS011;56152;49.996;18.980;2023-10-31T06:16:21;5.32;;;2.20;;
43646;SDS011;56152;49.996;18.980;2023-10-31T06:21:26;5.50;;;2.45;;
43646;SDS011;56152;49.996;18.980;2023-10-31T06:26:33;7.28;;;2.00;;
43646;SDS011;56152;49.996;18.980;2023-10-31T06:31:36;6.93;;;2.38;;
43646;SDS011;56152;49.996;18.980;2023-10-31T06:36:42;4.82;;;2.15;;
43646;SDS011;56152;49.996;18.980;2023-10-31T06:41:46;7.80;;;2.20;;
43646;SDS011;56152;49.996;18.980;2023-10-31T06:46:48;9.77;;;2.25;;
43646;SDS011;56152;49.996;18.980;2023-10-31T06:51:50;5.40;;;2.10;;
43646;SDS011;56152;49.996;18.980;2023-10-31T06:56:54;9.88;;;2.33;;
43646;SDS011;56152;49.996;18.980;2023-10-31T07:01:57;6.90;;;2.47;;
43646;SDS011;56152;49.996;18.980;2023-10-31T07:06:59;7.28;;;2.20;;
43646;SDS011;56152;49.996;18.980;2023-10-31T07:12:04;6.38;;;2.00;;
43646;SDS011;56152;49.996;18.980;2023-10-31T07:17:06;4.80;;;2.10;;
43646;SDS011;56152;49.996;18.980;2023-10-31T07:22:09;6.10;;;3.00;;
43646;SDS011;56152;49.996;18.980;2023-10-31T07:27:14;6.05;;;2.38;;
43646;SDS011;56152;49.996;18.980;2023-10-31T07:32:17;8.50;;;2.63;;
43646;SDS011;56152;49.996;18.980;2023-10-31T07:37:20;4.28;;;2.40;;
43646;SDS011;56152;49.996;18.980;2023-10-31T07:42:24;6.93;;;3.08;;
43646;SDS011;56152;49.996;18.980;2023-10-31T07:47:26;8.05;;;2.47;;
43646;SDS011;56152;49.996;18.980;2023-10-31T07:52:29;8.63;;;3.25;;
43646;SDS011;56152;49.996;18.980;2023-10-31T07:57:33;5.97;;;2.80;;
43646;SDS011;56152;49.996;18.980;2023-10-31T08:02:35;10.23;;;3.25;;
43646;SDS011;56152;49.996;18.980;2023-10-31T08:07:37;7.53;;;2.50;;
43646;SDS011;56152;49.996;18.980;2023-10-31T08:12:41;6.03;;;2.55;;
43646;SDS011;56152;49.996;18.980;2023-10-31T08:17:43;5.65;;;2.35;;
43646;SDS011;56152;49.996;18.980;2023-10-31T08:22:45;6.40;;;2.80;;
43646;SDS011;56152;49.996;18.980;2023-10-31T08:27:49;6.82;;;2.85;;
43646;SDS011;56152;49.996;18.980;2023-10-31T08:32:51;5.40;;;2.20;;
43646;SDS011;56152;49.996;18.980;2023-10-31T08:37:54;6.82;;;2.55;;
43646;SDS011;56152;49.996;18.980;2023-10-31T08:43:00;3.88;;;2.15;;
43646;SDS011;56152;49.996;18.980;2023-10-31T08:48:04;3.80;;;2.17;;
43646;SDS011;56152;49.996;18.980;2023-10-31T08:53:10;8.18;;;4.30;;
43646;SDS011;56152;49.996;18.980;2023-10-31T08:58:14;6.95;;;2.97;;
43646;SDS011;56152;49.996;18.980;2023-10-31T09:03:18;5.50;;;3.45;;
43646;SDS011;56152;49.996;18.980;2023-10-31T09:08:20;5.90;;;2.95;;
43646;SDS011;56152;49.996;18.980;2023-10-31T09:13:27;8.00;;;3.30;;
43646;SDS011;56152;49.996;18.980;2023-10-31T09:18:31;8.48;;;3.53;;
43646;SDS011;56152;49.996;18.980;2023-10-31T09:23:35;5.65;;;3.40;;
43646;SDS011;56152;49.996;18.980;2023-10-31T09:28:41;5.25;;;3.25;;
43646;SDS011;56152;49.996;18.980;2023-10-31T09:33:49;7.20;;;3.15;;
43646;SDS011;56152;49.996;18.980;2023-10-31T09:38:52;7.95;;;3.50;;
43646;SDS011;56152;49.996;18.980;2023-10-31T09:43:56;3.85;;;2.60;;
43646;SDS011;56152;49.996;18.980;2023-10-31T09:48:58;4.22;;;2.42;;
43646;SDS011;56152;49.996;18.980;2023-10-31T09:54:04;3.95;;;2.17;;
43646;SDS011;56152;49.996;18.980;2023-10-31T09:59:10;5.43;;;2.47;;
43646;SDS011;56152;49.996;18.980;2023-10-31T10:04:17;4.80;;;2.20;;
43646;SDS011;56152;49.996;18.980;2023-10-31T10:09:23;3.80;;;2.13;;
43646;SDS011;56152;49.996;18.980;2023-10-31T10:14:34;8.50;;;2.85;;
43646;SDS011;56152;49.996;18.980;2023-10-31T10:19:36;4.82;;;2.20;;
43646;SDS011;56152;49.996;18.980;2023-10-31T10:24:41;5.30;;;2.50;;
43646;SDS011;56152;49.996;18.980;2023-10-31T10:29:49;4.10;;;2.17;;
43646;SDS011;56152;49.996;18.980;2023-10-31T10:34:55;5.43;;;2.03;;
43646;SDS011;56152;49.996;18.980;2023-10-31T10:39:58;3.72;;;1.80;;
43646;SDS011;56152;49.996;18.980;2023-10-31T10:45:04;3.85;;;1.98;;
43646;SDS011;56152;49.996;18.980;2023-10-31T10:50:07;3.95;;;1.80;;
43646;SDS011;56152;49.996;18.980;2023-10-31T10:55:12;3.10;;;1.70;;
43646;SDS011;56152;49.996;18.980;2023-10-31T11:00:24;6.95;;;1.90;;
43646;SDS011;56152;49.996;18.980;2023-10-31T11:05:33;5.93;;;2.15;;
43646;SDS011;56152;49.996;18.980;2023-10-31T11:10:37;4.07;;;2.00;;
43646;SDS011;56152;49.996;18.980;2023-10-31T11:15:42;2.88;;;1.75;;
43646;SDS011;56152;49.996;18.980;2023-10-31T11:20:45;2.75;;;2.00;;
43646;SDS011;56152;49.996;18.980;2023-10-31T11:25:49;3.92;;;2.00;;
43646;SDS011;56152;49.996;18.980;2023-10-31T11:30:59;9.05;;;3.03;;
43646;SDS011;56152;49.996;18.980;2023-10-31T11:36:03;3.28;;;2.00;;
43646;SDS011;56152;49.996;18.980;2023-10-31T11:41:05;3.13;;;2.05;;
43646;SDS011;56152;49.996;18.980;2023-10-31T11:46:18;3.33;;;1.70;;
43646;SDS011;56152;49.996;18.980;2023-10-31T11:51:20;8.30;;;1.70;;
43646;SDS011;56152;49.996;18.980;2023-10-31T11:56:23;4.40;;;2.00;;
43646;SDS011;56152;49.996;18.980;2023-10-31T12:01:29;4.88;;;2.50;;
43646;SDS011;56152;49.996;18.980;2023-10-31T12:06:31;3.58;;;1.80;;
43646;SDS011;56152;49.996;18.980;2023-10-31T12:11:37;3.83;;;1.77;;
43646;SDS011;56152;49.996;18.980;2023-10-31T12:16:48;4.43;;;1.83;;
43646;SDS011;56152;49.996;18.980;2023-10-31T12:21:50;2.83;;;1.88;;
43646;SDS011;56152;49.996;18.980;2023-10-31T12:26:55;5.90;;;1.90;;
43646;SDS011;56152;49.996;18.980;2023-10-31T12:32:04;2.08;;;1.30;;
43646;SDS011;56152;49.996;18.980;2023-10-31T12:37:13;1.70;;;1.23;;
43646;SDS011;56152;49.996;18.980;2023-10-31T12:42:16;2.95;;;1.50;;
43646;SDS011;56152;49.996;18.980;2023-10-31T12:47:23;4.85;;;2.13;;
43646;SDS011;56152;49.996;18.980;2023-10-31T12:52:26;2.85;;;2.00;;
43646;SDS011;56152;49.996;18.980;2023-10-31T12:57:28;6.57;;;2.50;;
43646;SDS011;56152;49.996;18.980;2023-10-31T13:02:31;5.72;;;2.47;;
43646;SDS011;56152;49.996;18.980;2023-10-31T13:07:34;4.65;;;2.90;;
43646;SDS011;56152;49.996;18.980;2023-10-31T13:12:36;3.70;;;2.45;;
43646;SDS011;56152;49.996;18.980;2023-10-31T13:17:40;6.80;;;2.70;;
43646;SDS011;56152;49.996;18.980;2023-10-31T13:22:43;7.05;;;3.60;;
43646;SDS011;56152;49.996;18.980;2023-10-31T13:27:46;5.78;;;2.85;;
43646;SDS011;56152;49.996;18.980;2023-10-31T13:32:52;7.78;;;3.13;;
43646;SDS011;56152;49.996;18.980;2023-10-31T13:37:54;5.80;;;3.78;;
43646;SDS011;56152;49.996;18.980;2023-10-31T13:42:57;7.47;;;3.28;;
43646;SDS011;56152;49.996;18.980;2023-10-31T13:48:02;9.65;;;4.10;;
43646;SDS011;56152;49.996;18.980;2023-10-31T13:53:05;5.63;;;3.17;;
43646;SDS011;56152;49.996;18.980;2023-10-31T13:58:08;6.07;;;3.53;;
43646;SDS011;56152;49.996;18.980;2023-10-31T14:03:12;8.32;;;4.85;;
43646;SDS011;56152;49.996;18.980;2023-10-31T14:08:15;13.60;;;7.53;;
43646;SDS011;56152;49.996;18.980;2023-10-31T14:13:19;6.63;;;4.38;;
43646;SDS011;56152;49.996;18.980;2023-10-31T14:18:22;6.88;;;4.82;;
43646;SDS011;56152;49.996;18.980;2023-10-31T14:23:25;5.43;;;3.40;;
43646;SDS011;56152;49.996;18.980;2023-10-31T14:28:30;7.65;;;3.75;;
43646;SDS011;56152;49.996;18.980;2023-10-31T14:33:40;6.68;;;4.18;;
43646;SDS011;56152;49.996;18.980;2023-10-31T14:38:42;7.63;;;5.47;;
43646;SDS011;56152;49.996;18.980;2023-10-31T14:43:45;10.30;;;6.38;;
43646;SDS011;56152;49.996;18.980;2023-10-31T14:48:50;8.52;;;5.70;;
43646;SDS011;56152;49.996;18.980;2023-10-31T14:53:53;11.07;;;6.18;;
43646;SDS011;56152;49.996;18.980;2023-10-31T14:58:55;10.93;;;5.93;;
43646;SDS011;56152;49.996;18.980;2023-10-31T15:03:59;10.13;;;6.38;;
43646;SDS011;56152;49.996;18.980;2023-10-31T15:09:01;10.10;;;5.35;;
43646;SDS011;56152;49.996;18.980;2023-10-31T15:14:06;7.15;;;4.70;;
43646;SDS011;56152;49.996;18.980;2023-10-31T15:19:09;11.35;;;6.22;;
43646;SDS011;56152;49.996;18.980;2023-10-31T15:24:11;10.38;;;5.95;;
43646;SDS011;56152;49.996;18.980;2023-10-31T15:29:14;9.15;;;6.32;;
43646;SDS011;56152;49.996;18.980;2023-10-31T15:34:18;10.15;;;7.13;;
43646;SDS011;56152;49.996;18.980;2023-10-31T15:39:20;13.38;;;8.68;;
43646;SDS011;56152;49.996;18.980;2023-10-31T15:44:22;10.02;;;6.70;;
43646;SDS011;56152;49.996;18.980;2023-10-31T15:49:28;6.05;;;5.18;;
43646;SDS011;56152;49.996;18.980;2023-10-31T15:54:32;9.55;;;6.93;;
43646;SDS011;56152;49.996;18.980;2023-10-31T15:59:34;10.93;;;6.45;;
43646;SDS011;56152;49.996;18.980;2023-10-31T16:04:40;10.25;;;7.90;;
43646;SDS011;56152;49.996;18.980;2023-10-31T16:09:46;14.43;;;10.27;;
43646;SDS011;56152;49.996;18.980;2023-10-31T16:14:52;9.25;;;6.68;;
43646;SDS011;56152;49.996;18.980;2023-10-31T16:20:03;9.52;;;6.55;;
43646;SDS011;56152;49.996;18.980;2023-10-31T16:25:09;10.82;;;7.78;;
43646;SDS011;56152;49.996;18.980;2023-10-31T16:30:11;13.98;;;8.05;;
43646;SDS011;56152;49.996;18.980;2023-10-31T16:35:17;9.07;;;6.82;;
43646;SDS011;56152;49.996;18.980;2023-10-31T16:40:19;9.23;;;6.10;;
43646;SDS011;56152;49.996;18.980;2023-10-31T16:45:24;10.00;;;5.93;;
43646;SDS011;56152;49.996;18.980;2023-10-31T16:50:35;9.85;;;4.93;;
43646;SDS011;56152;49.996;18.980;2023-10-31T16:55:38;8.27;;;5.10;;
43646;SDS011;56152;49.996;18.980;2023-10-31T17:00:43;9.02;;;5.15;;
43646;SDS011;56152;49.996;18.980;2023-10-31T17:05:48;8.80;;;5.93;;
43646;SDS011;56152;49.996;18.980;2023-10-31T17:10:50;11.80;;;7.22;;
43646;SDS011;56152;49.996;18.980;2023-10-31T17:15:53;15.10;;;7.85;;
43646;SDS011;56152;49.996;18.980;2023-10-31T17:20:57;12.85;;;7.63;;
43646;SDS011;56152;49.996;18.980;2023-10-31T17:25:59;13.40;;;8.45;;
43646;SDS011;56152;49.996;18.980;2023-10-31T17:31:04;12.77;;;7.63;;
43646;SDS011;56152;49.996;18.980;2023-10-31T17:36:11;12.00;;;7.57;;
43646;SDS011;56152;49.996;18.980;2023-10-31T17:41:14;15.60;;;8.60;;
43646;SDS011;56152;49.996;18.980;2023-10-31T17:46:18;11.95;;;7.55;;
43646;SDS011;56152;49.996;18.980;2023-10-31T17:51:23;15.27;;;7.45;;
43646;SDS011;56152;49.996;18.980;2023-10-31T17:56:25;13.35;;;7.30;;
43646;SDS011;56152;49.996;18.980;2023-10-31T18:01:28;11.75;;;7.30;;
43646;SDS011;56152;49.996;18.980;2023-10-31T18:06:33;13.77;;;9.07;;
43646;SDS011;56152;49.996;18.980;2023-10-31T18:11:36;15.77;;;10.20;;
43646;SDS011;56152;49.996;18.980;2023-10-31T18:16:38;12.90;;;8.15;;
43646;SDS011;56152;49.996;18.980;2023-10-31T18:21:43;10.18;;;6.78;;
43646;SDS011;56152;49.996;18.980;2023-10-31T18:26:45;14.75;;;8.80;;
43646;SDS011;56152;49.996;18.980;2023-10-31T18:31:47;18.50;;;9.57;;
43646;SDS011;56152;49.996;18.980;2023-10-31T18:36:52;16.90;;;11.55;;
43646;SDS011;56152;49.996;18.980;2023-10-31T18:41:54;15.82;;;10.63;;
43646;SDS011;56152;49.996;18.980;2023-10-31T18:46:57;17.88;;;10.68;;
43646;SDS011;56152;49.996;18.980;2023-10-31T18:52:02;15.23;;;9.70;;
43646;SDS011;56152;49.996;18.980;2023-10-31T18:57:05;12.32;;;8.50;;
43646;SDS011;56152;49.996;18.980;2023-10-31T19:02:10;13.85;;;8.88;;
43646;SDS011;56152;49.996;18.980;2023-10-31T19:07:18;14.25;;;8.30;;
43646;SDS011;56152;49.996;18.980;2023-10-31T19:12:21;17.10;;;8.90;;
43646;SDS011;56152;49.996;18.980;2023-10-31T19:17:24;16.60;;;9.65;;
43646;SDS011;56152;49.996;18.980;2023-10-31T19:22:30;14.05;;;7.50;;
43646;SDS011;56152;49.996;18.980;2023-10-31T19:27:32;18.50;;;7.28;;
43646;SDS011;56152;49.996;18.980;2023-10-31T19:32:39;13.13;;;8.07;;
43646;SDS011;56152;49.996;18.980;2023-10-31T19:37:50;12.52;;;9.20;;
43646;SDS011;56152;49.996;18.980;2023-10-31T19:42:53;19.98;;;13.38;;
43646;SDS011;56152;49.996;18.980;2023-10-31T19:47:55;18.40;;;10.93;;
43646;SDS011;56152;49.996;18.980;2023-10-31T19:53:10;9.20;;;6.03;;
43646;SDS011;56152;49.996;18.980;2023-10-31T19:58:13;6.57;;;4.30;;
43646;SDS011;56152;49.996;18.980;2023-10-31T20:03:21;9.15;;;4.13;;
43646;SDS011;56152;49.996;18.980;2023-10-31T20:08:27;6.40;;;3.92;;
43646;SDS011;56152;49.996;18.980;2023-10-31T20:13:30;5.53;;;3.92;;
43646;SDS011;56152;49.996;18.980;2023-10-31T20:18:33;9.43;;;4.70;;
43646;SDS011;56152;49.996;18.980;2023-10-31T20:23:38;7.40;;;4.95;;
43646;SDS011;56152;49.996;18.980;2023-10-31T20:28:41;7.43;;;4.45;;
43646;SDS011;56152;49.996;18.980;2023-10-31T20:33:47;7.07;;;5.10;;
43646;SDS011;56152;49.996;18.980;2023-10-31T20:38:57;10.30;;;5.17;;
43646;SDS011;56152;49.996;18.980;2023-10-31T20:43:59;8.55;;;4.72;;
43646;SDS011;56152;49.996;18.980;2023-10-31T20:49:03;10.20;;;5.53;;
43646;SDS011;56152;49.996;18.980;2023-10-31T20:54:11;7.82;;;5.65;;
43646;SDS011;56152;49.996;18.980;2023-10-31T20:59:28;7.13;;;5.88;;
43646;SDS011;56152;49.996;18.980;2023-10-31T21:04:30;9.77;;;5.78;;
43646;SDS011;56152;49.996;18.980;2023-10-31T21:09:38;7.38;;;6.07;;
43646;SDS011;56152;49.996;18.980;2023-10-31T21:14:41;7.78;;;5.38;;
43646;SDS011;56152;49.996;18.980;2023-10-31T21:19:44;5.93;;;5.20;;
43646;SDS011;56152;49.996;18.980;2023-10-31T21:24:49;8.30;;;5.45;;
43646;SDS011;56152;49.996;18.980;2023-10-31T21:29:55;9.65;;;6.10;;
43646;SDS011;56152;49.996;18.980;2023-10-31T21:34:59;8.10;;;6.07;;
43646;SDS011;56152;49.996;18.980;2023-10-31T21:40:07;8.25;;;6.57;;
43646;SDS011;56152;49.996;18.980;2023-10-31T21:45:10;13.98;;;7.55;;
43646;SDS011;56152;49.996;18.980;2023-10-31T21:50:13;9.68;;;6.68;;
43646;SDS011;56152;49.996;18.980;2023-10-31T21:55:24;13.23;;;6.22;;
43646;SDS011;56152;49.996;18.980;2023-10-31T22:00:27;12.02;;;6.78;;
43646;SDS011;56152;49.996;18.980;2023-10-31T22:05:30;8.73;;;6.90;;
43646;SDS011;56152;49.996;18.980;2023-10-31T22:10:35;6.93;;;6.20;;
43646;SDS011;56152;49.996;18.980;2023-10-31T22:15:37;9.27;;;6.28;;
43646;SDS011;56152;49.996;18.980;2023-10-31T22:20:41;6.90;;;5.80;;
43646;SDS011;56152;49.996;18.980;2023-10-31T22:25:50;8.32;;;6.32;;
43646;SDS011;56152;49.996;18.980;2023-10-31T22:30:52;8.45;;;6.22;;
43646;SDS011;56152;49.996;18.980;2023-10-31T22:35:55;9.02;;;6.80;;
43646;SDS011;56152;49.996;18.980;2023-10-31T22:40:59;9.27;;;6.50;;
43646;SDS011;56152;49.996;18.980;2023-10-31T22:46:05;8.27;;;6.38;;
43646;SDS011;56152;49.996;18.980;2023-10-31T22:51:11;8.75;;;6.82;;
43646;SDS011;56152;49.996;18.980;2023-10-31T22:56:18;8.45;;;7.03;;
43646;SDS011;56152;49.996;18.980;2023-10-31T23:01:21;8.50;;;7.15;;
43646;SDS011;56152;49.996;18.980;2023-10-31T23:06:24;8.60;;;7.18;;
43646;SDS011;56152;49.996;18.980;2023-10-31T23:11:32;13.70;;;7.15;;
43646;SDS011;56152;49.996;18.980;2023-10-31T23:16:37;9.82;;;6.82;;
43646;SDS011;56152;49.996;18.980;2023-10-31T23:21:42;12.00;;;6.82;;
43646;SDS011;56152;49.996;18.980;2023-10-31T23:26:47;7.82;;;6.65;;
43646;SDS011;56152;49.996;18.980;2023-10-31T23:31:49;9.65;;;7.30;;
43646;SDS011;56152;49.996;18.980;2023-10-31T23:36:54;9.68;;;7.63;;
43646;SDS011;56152;49.996;18.980;2023-10-31T23:41:59;11.45;;;7.47;;
43646;SDS011;56152;49.996;18.980;2023-10-31T23:47:01;8.82;;;7.20;;
43646;SDS011;56152;49.996;18.980;2023-10-31T23:52:05;9.02;;;6.93;;
43646;SDS011;56152;49.996;18.980;2023-10-31T23:57:11;8.43;;;7.03;;
